• Join FlightAware (Why Join?)
  • Login
  • US Flag 
05:39PM EDT


 

Airport Tracker/Info


-or-


 

Live Flight TrackerFlight Track Log ✈ CMP205 ✈ 14-Jun-2013 ✈ MPTO / PTY - SBBR / BSB

Flight Track Log - Related Links

Times and Time Zones

All times are in EDT time to prevent confusion due to time zone crossing. See the CMP205 flight status page for this flight to view local times or setup timezone preferences in your user account.

Time Position Orientation Groundspeed Altitude Reporting Facility
EDT Latitude Longitude Course Direction KTS MPH feet Rate Location/Type
04:59PM 9.0770 -79.3850 30° Northeast 90 104  Level FlightAware
04:59PM 9.0950 -79.3740 31° Northeast 188 216 500 1,800 Climbing FlightAware
05:00PM 9.1110 -79.3550 50° Northeast 182 209 1,800 2,400 Climbing FlightAware
05:00PM 9.1130 -79.3280 86° East 190 219 2,900 2,160 Climbing FlightAware
05:01PM 9.1070 -79.3080 107° East 193 222 3,800 1,560 Climbing FlightAware
05:01PM 9.0950 -79.2970 138° Southeast 225 259 4,000 1,020 Climbing FlightAware
05:01PM 9.0740 -79.2780 138° Southeast 260 299 4,500 1,800 Climbing FlightAware
05:02PM 9.0460 -79.2510 136° Southeast 272 313 5,600 2,400 Climbing FlightAware
05:02PM 9.0360 -79.2420 138° Southeast 281 323 6,100 2,700 Climbing FlightAware
05:03PM 9.0070 -79.2160 138° Southeast 285 328 7,400 2,640 Climbing FlightAware
05:03PM 8.9870 -79.1970 137° Southeast 289 333 8,300 2,640 Climbing FlightAware
05:03PM 8.9820 -79.1930 142° Southeast 290 334 8,500 2,520 Climbing FlightAware
05:04PM 8.9360 -79.1510 138° Southeast 292 336 10,400 1,440 Climbing FlightAware
05:05PM 8.9030 -79.1200 137° Southeast 293 337 10,600 1,500 Climbing FlightAware
05:06PM 8.8220 -79.0470 138° Southeast 358 412 13,000 1,800 Climbing FlightAware
05:06PM 8.7680 -78.9950 136° Southeast 358 412 13,800 1,440 Climbing FlightAware
05:07PM 8.6800 -78.9160 138° Southeast 372 428 15,800 1,080 Climbing FlightAware
05:08PM 8.6430 -78.8810 137° Southeast 372 428 15,800  Level FlightAware
05:09PM 8.5910 -78.8320 137° Southeast 372 428 15,800  Level FlightAware
05:09PM 8.5490 -78.7920 137° Southeast 372 428 15,800  Level FlightAware
05:10PM 8.4860 -78.7330 137° Southeast 372 428 15,800 420 Level FlightAware
05:13PM 8.3490 -78.5591 129° Southeast  Level Estimated
05:14PM 8.2822 -78.4743 129° Southeast  Level Estimated
05:15PM 8.2153 -78.3896 129° Southeast  Level Estimated
05:16PM 8.1484 -78.3048 129° Southeast  Level Estimated
05:17PM 8.0815 -78.2201 129° Southeast  Level Estimated
05:18PM 8.0146 -78.1355 129° Southeast  Level Estimated
05:19PM 7.9477 -78.0508 129° Southeast  Level Estimated
05:20PM 7.8808 -77.9662 129° Southeast  Level Estimated
05:21PM 7.8138 -77.8816 129° Southeast  Level Estimated
05:22PM 7.7468 -77.7971 129° Southeast  Level Estimated
05:23PM 7.6798 -77.7125 129° Southeast  Level Estimated
05:24PM 7.6128 -77.6280 129° Southeast  Level Estimated
05:25PM 7.5458 -77.5435 129° Southeast  Level Estimated
05:26PM 7.4787 -77.4591 129° Southeast  Level Estimated
05:27PM 7.4117 -77.3747 129° Southeast  Level Estimated
05:28PM 7.3446 -77.2903 129° Southeast  Level Estimated
05:29PM 7.2775 -77.2059 129° Southeast  Level Estimated
05:30PM 7.2104 -77.1215 129° Southeast  Level Estimated
05:31PM 7.1432 -77.0372 129° Southeast  Level Estimated
05:32PM 7.0761 -76.9529 129° Southeast  Level Estimated
05:33PM 7.0089 -76.8686 129° Southeast  Level Estimated
05:34PM 6.9418 -76.7844 129° Southeast  Level Estimated
05:35PM 6.8746 -76.7001 129° Southeast  Level Estimated
05:36PM 6.8074 -76.6159 129° Southeast  Level Estimated
05:37PM 6.7401 -76.5318 129° Southeast  Level Estimated
05:38PM 6.6729 -76.4476 129° Southeast  Level Estimated
05:39PM 6.6057 -76.3634 129° Southeast  Level Estimated
05:40PM 6.5384 -76.2793 129° Southeast  Level Estimated
05:41PM 6.4711 -76.1953 129° Southeast  Level Estimated
05:42PM 6.4039 -76.1112 129° Southeast  Level Estimated
05:43PM 6.3366 -76.0271 129° Southeast  Level Estimated
05:44PM 6.2692 -75.9431 129° Southeast  Level Estimated
05:45PM 6.2019 -75.8591 129° Southeast  Level Estimated
05:46PM 6.1346 -75.7751 129° Southeast  Level Estimated
05:47PM 6.0672 -75.6912 129° Southeast  Level Estimated
05:48PM 5.9998 -75.6072 129° Southeast  Level Estimated
05:49PM 5.9325 -75.5233 129° Southeast  Level Estimated
05:50PM 5.8651 -75.4394 129° Southeast  Level Estimated
05:51PM 5.7977 -75.3555 129° Southeast  Level Estimated
05:51PM 5.6210 -74.8660 129° Southeast 432 497 35,000  Level FlightAware
05:52PM 5.7302 -75.2717 129° Southeast  Level Estimated
05:52PM 5.5590 -74.8110 139° Southeast 432 497 35,000  Level FlightAware
05:52PM 5.4940 -74.7520 138° Southeast 434 499 35,000  Level FlightAware
05:53PM 5.4310 -74.6960 138° Southeast 433 498 35,000  Level FlightAware
05:54PM 5.3740 -74.6450 138° Southeast 432 497 35,000  Level FlightAware
05:55PM 5.3050 -74.5830 138° Southeast 434 499 35,000  Level FlightAware
05:55PM 5.2390 -74.5220 137° Southeast 439 505 35,000  Level FlightAware
05:56PM 5.1790 -74.4670 138° Southeast 438 504 35,000  Level FlightAware
05:57PM 5.1180 -74.4080 136° Southeast 440 506 35,000  Level FlightAware
05:57PM 5.0570 -74.3410 132° Southeast 438 504 35,000  Level FlightAware
05:58PM 5.0030 -74.2820 133° Southeast 440 506 35,000  Level FlightAware
05:59PM 4.9410 -74.2150 133° Southeast 442 509 35,000  Level FlightAware
05:59PM 4.8860 -74.1560 133° Southeast 443 510 35,000  Level FlightAware
06:00PM 4.8100 -74.0730 133° Southeast 446 513 35,000  Level FlightAware
06:01PM 4.7500 -74.0090 133° Southeast 448 516 35,000  Level FlightAware
06:02PM 4.7100 -73.9660 133° Southeast 449 517 35,000  Level FlightAware
06:03PM 4.6260 -73.8750 133° Southeast 446 513 35,000  Level FlightAware
06:03PM 4.5720 -73.8170 133° Southeast 447 514 35,000  Level FlightAware
06:04PM 4.5110 -73.7510 133° Southeast 447 514 35,000  Level FlightAware
06:05PM 4.4480 -73.6830 133° Southeast 447 514 35,000  Level FlightAware
06:05PM 4.3960 -73.6260 132° Southeast 445 512 35,000  Level FlightAware
06:06PM 4.3320 -73.5570 133° Southeast 443 510 35,000  Level FlightAware
06:07PM 4.2750 -73.4960 133° Southeast 442 509 35,000  Level FlightAware
06:07PM 4.2160 -73.4320 133° Southeast 442 509 35,000  Level FlightAware
06:08PM 4.1590 -73.3700 133° Southeast 444 511 35,000  Level FlightAware
06:09PM 4.1020 -73.3090 133° Southeast 445 512 35,000  Level FlightAware
06:09PM 4.0400 -73.2420 133° Southeast 445 512 35,000  Level FlightAware
06:10PM 3.9900 -73.1880 133° Southeast 445 512 35,000  Level FlightAware
06:11PM 3.9250 -73.1160 132° Southeast 445 512 35,000  Level FlightAware
06:12PM 3.8820 -73.0680 132° Southeast 445 512 35,000  Level FlightAware
06:12PM 3.8260 -73.0050 132° Southeast 445 512 35,000  Level FlightAware
06:13PM 3.7840 -72.9580 132° Southeast 445 512 35,000  Level FlightAware
06:14PM 3.7240 -72.8920 132° Southeast 445 512 35,000  Level FlightAware
06:15PM 3.6790 -72.8420 132° Southeast 445 512 35,000  Level FlightAware
06:16PM 3.6070 -72.7620 132° Southeast 445 512 35,000  Level FlightAware
06:16PM 3.5660 -72.7160 132° Southeast 445 512 35,000  Level FlightAware
06:17PM 3.5210 -72.6670 133° Southeast 445 512 35,000  Level FlightAware
06:18PM 3.4640 -72.6030 132° Southeast 445 512 35,000  Level FlightAware
06:18PM 3.4230 -72.5570 132° Southeast 445 512 35,000  Level FlightAware
06:19PM 3.3660 -72.4930 132° Southeast 445 512 35,000  Level FlightAware
06:20PM 3.3200 -72.4420 132° Southeast 445 512 35,000  Level FlightAware
06:22PM 3.1939 -72.2862 129° Southeast  Level Estimated
06:23PM 3.1264 -72.2027 129° Southeast  Level Estimated
06:24PM 3.0589 -72.1193 129° Southeast  Level Estimated
06:25PM 2.9913 -72.0358 129° Southeast  Level Estimated
06:26PM 2.9237 -71.9524 129° Southeast  Level Estimated
06:27PM 2.8562 -71.8690 129° Southeast  Level Estimated
06:28PM 2.7886 -71.7856 129° Southeast  Level Estimated
06:29PM 2.7210 -71.7022 129° Southeast  Level Estimated
06:30PM 2.6534 -71.6188 129° Southeast  Level Estimated
06:31PM 2.5858 -71.5354 129° Southeast  Level Estimated
06:32PM 2.5182 -71.4520 129° Southeast  Level Estimated
06:33PM 2.4506 -71.3687 129° Southeast  Level Estimated
06:34PM 2.3830 -71.2853 129° Southeast  Level Estimated
06:35PM 2.3154 -71.2020 129° Southeast  Level Estimated
06:36PM 2.2478 -71.1186 129° Southeast  Level Estimated
06:37PM 2.1802 -71.0353 129° Southeast  Level Estimated
06:38PM 2.1125 -70.9520 129° Southeast  Level Estimated
06:39PM 2.0449 -70.8687 129° Southeast  Level Estimated
06:40PM 1.9773 -70.7854 129° Southeast  Level Estimated
06:41PM 1.9096 -70.7021 129° Southeast  Level Estimated
06:42PM 1.8420 -70.6188 129° Southeast  Level Estimated
06:43PM 1.7743 -70.5355 129° Southeast  Level Estimated
06:44PM 1.7067 -70.4522 129° Southeast  Level Estimated
06:45PM 1.6390 -70.3689 129° Southeast  Level Estimated
06:46PM 1.5714 -70.2857 129° Southeast  Level Estimated
06:47PM 1.5037 -70.2024 129° Southeast  Level Estimated
06:48PM 1.4361 -70.1191 129° Southeast  Level Estimated
06:49PM 1.3684 -70.0359 129° Southeast  Level Estimated
06:50PM 1.3007 -69.9526 129° Southeast  Level Estimated
06:51PM 1.2330 -69.8694 129° Southeast  Level Estimated
06:52PM 1.1654 -69.7861 129° Southeast  Level Estimated
06:53PM 1.0977 -69.7029 129° Southeast  Level Estimated
06:54PM 1.0300 -69.6197 129° Southeast  Level Estimated
06:55PM 0.9623 -69.5364 129° Southeast  Level Estimated
06:56PM 0.8946 -69.4532 129° Southeast  Level Estimated
06:57PM 0.8270 -69.3700 129° Southeast  Level Estimated
06:58PM 0.7593 -69.2868 129° Southeast  Level Estimated
06:59PM 0.6916 -69.2035 129° Southeast  Level Estimated
07:00PM 0.6239 -69.1203 129° Southeast  Level Estimated
07:01PM 0.5562 -69.0371 129° Southeast  Level Estimated
07:02PM 0.4885 -68.9539 129° Southeast  Level Estimated
07:03PM 0.4208 -68.8707 129° Southeast  Level Estimated
07:04PM 0.3531 -68.7875 129° Southeast  Level Estimated
07:05PM 0.2854 -68.7043 129° Southeast  Level Estimated
07:06PM 0.2177 -68.6211 129° Southeast  Level Estimated
07:07PM 0.1500 -68.5378 129° Southeast  Level Estimated
07:08PM 0.0823 -68.4546 129° Southeast  Level Estimated
07:09PM 0.0146 -68.3714 129° Southeast  Level Estimated
07:10PM -0.0531 -68.2882 129° Southeast  Level Estimated
07:11PM -0.1208 -68.2050 129° Southeast  Level Estimated
07:12PM -0.1885 -68.1218 129° Southeast  Level Estimated
07:13PM -0.2562 -68.0386 129° Southeast  Level Estimated
07:14PM -0.3239 -67.9554 129° Southeast  Level Estimated
07:15PM -0.3916 -67.8722 129° Southeast  Level Estimated
07:16PM -0.4593 -67.7890 129° Southeast  Level Estimated
07:17PM -0.5270 -67.7057 129° Southeast  Level Estimated
07:18PM -0.5947 -67.6225 129° Southeast  Level Estimated
07:19PM -0.6623 -67.5393 129° Southeast  Level Estimated
07:20PM -0.7300 -67.4561 129° Southeast  Level Estimated
07:21PM -0.7977 -67.3729 129° Southeast  Level Estimated
07:22PM -0.8654 -67.2897 129° Southeast  Level Estimated
07:23PM -0.9331 -67.2064 129° Southeast  Level Estimated
07:24PM -1.0008 -67.1232 129° Southeast  Level Estimated
07:25PM -1.0685 -67.0400 129° Southeast  Level Estimated
07:26PM -1.1362 -66.9567 129° Southeast  Level Estimated
07:27PM -1.2038 -66.8735 129° Southeast  Level Estimated
07:28PM -1.2715 -66.7903 129° Southeast  Level Estimated
07:29PM -1.3392 -66.7070 129° Southeast  Level Estimated
07:30PM -1.4068 -66.6237 129° Southeast  Level Estimated
07:31PM -1.4745 -66.5405 129° Southeast  Level Estimated
07:32PM -1.5422 -66.4572 129° Southeast  Level Estimated
07:33PM -1.6098 -66.3740 129° Southeast  Level Estimated
07:34PM -1.6775 -66.2907 129° Southeast  Level Estimated
07:35PM -1.7451 -66.2074 129° Southeast  Level Estimated
07:36PM -1.8128 -66.1241 129° Southeast  Level Estimated
07:37PM -1.8804 -66.0408 129° Southeast  Level Estimated
07:38PM -1.9481 -65.9575 129° Southeast  Level Estimated
07:39PM -2.0157 -65.8742 129° Southeast  Level Estimated
07:40PM -2.0833 -65.7909 129° Southeast  Level Estimated
07:41PM -2.1510 -65.7076 129° Southeast  Level Estimated
07:42PM -2.2186 -65.6243 129° Southeast  Level Estimated
07:43PM -2.2862 -65.5409 129° Southeast  Level Estimated
07:44PM -2.3538 -65.4576 129° Southeast  Level Estimated
07:45PM -2.4214 -65.3743 129° Southeast  Level Estimated
07:46PM -2.4890 -65.2909 129° Southeast  Level Estimated
07:47PM -2.5566 -65.2075 129° Southeast  Level Estimated
07:48PM -2.6242 -65.1241 129° Southeast  Level Estimated
07:49PM -2.6918 -65.0408 129° Southeast  Level Estimated
07:50PM -2.7594 -64.9574 129° Southeast  Level Estimated
07:51PM -2.8270 -64.8740 129° Southeast  Level Estimated
07:52PM -2.8946 -64.7906 129° Southeast  Level Estimated
07:53PM -2.9621 -64.7071 129° Southeast  Level Estimated
07:54PM -3.0297 -64.6237 129° Southeast  Level Estimated
07:55PM -3.0972 -64.5403 129° Southeast  Level Estimated
07:56PM -3.1648 -64.4568 129° Southeast  Level Estimated
07:57PM -3.2323 -64.3734 129° Southeast  Level Estimated
07:58PM -3.2998 -64.2899 129° Southeast  Level Estimated
07:59PM -3.3674 -64.2064 129° Southeast  Level Estimated
08:00PM -3.4349 -64.1229 129° Southeast  Level Estimated
08:01PM -3.5024 -64.0394 129° Southeast  Level Estimated
08:02PM -3.5699 -63.9559 129° Southeast  Level Estimated
08:03PM -3.6374 -63.8723 129° Southeast  Level Estimated
08:04PM -3.7049 -63.7888 129° Southeast  Level Estimated
08:05PM -3.7724 -63.7052 129° Southeast  Level Estimated
08:06PM -3.8398 -63.6216 129° Southeast  Level Estimated
08:07PM -3.9073 -63.5381 129° Southeast  Level Estimated
08:08PM -3.9747 -63.4544 129° Southeast  Level Estimated
08:09PM -4.0422 -63.3708 129° Southeast  Level Estimated
08:10PM -4.1096 -63.2872 129° Southeast  Level Estimated
08:11PM -4.1771 -63.2036 129° Southeast  Level Estimated
08:12PM -4.2445 -63.1199 129° Southeast  Level Estimated
08:13PM -4.3119 -63.0362 129° Southeast  Level Estimated
08:14PM -4.3793 -62.9525 129° Southeast  Level Estimated
08:15PM -4.4467 -62.8689 129° Southeast  Level Estimated
08:16PM -4.5141 -62.7851 129° Southeast  Level Estimated
08:17PM -4.5814 -62.7014 129° Southeast  Level Estimated
08:18PM -4.6488 -62.6176 129° Southeast  Level Estimated
08:19PM -4.7161 -62.5339 129° Southeast  Level Estimated
08:20PM -4.7835 -62.4501 129° Southeast  Level Estimated
08:21PM -4.8508 -62.3663 129° Southeast  Level Estimated
08:22PM -4.9181 -62.2825 129° Southeast  Level Estimated
08:23PM -4.9854 -62.1987 129° Southeast  Level Estimated
08:24PM -5.0527 -62.1148 129° Southeast  Level Estimated
08:25PM -5.1200 -62.0310 129° Southeast  Level Estimated
08:26PM -5.1873 -61.9471 129° Southeast  Level Estimated
08:27PM -5.2546 -61.8632 129° Southeast  Level Estimated
08:28PM -5.3218 -61.7793 129° Southeast  Level Estimated
08:29PM -5.3891 -61.6953 129° Southeast  Level Estimated
08:30PM -5.4563 -61.6114 129° Southeast  Level Estimated
08:31PM -5.5236 -61.5274 129° Southeast  Level Estimated
08:32PM -5.5908 -61.4434 129° Southeast  Level Estimated
08:33PM -5.6580 -61.3594 129° Southeast  Level Estimated
08:34PM -5.7252 -61.2754 129° Southeast  Level Estimated
08:35PM -5.7923 -61.1913 129° Southeast  Level Estimated
08:36PM -5.8595 -61.1073 129° Southeast  Level Estimated
08:37PM -5.9266 -61.0232 129° Southeast  Level Estimated
08:38PM -5.9938 -60.9390 129° Southeast  Level Estimated
08:39PM -6.0609 -60.8549 129° Southeast  Level Estimated
08:40PM -6.1280 -60.7708 129° Southeast  Level Estimated
08:41PM -6.1951 -60.6866 129° Southeast  Level Estimated
08:42PM -6.2622 -60.6024 129° Southeast  Level Estimated
08:43PM -6.3293 -60.5182 129° Southeast  Level Estimated
08:44PM -6.3963 -60.4339 129° Southeast  Level Estimated
08:45PM -6.4634 -60.3497 129° Southeast  Level Estimated
08:46PM -6.5304 -60.2654 129° Southeast  Level Estimated
08:47PM -6.5974 -60.1811 129° Southeast  Level Estimated
08:48PM -6.6644 -60.0968 129° Southeast  Level Estimated
08:49PM -6.7314 -60.0124 129° Southeast  Level Estimated
08:50PM -6.7984 -59.9280 129° Southeast  Level Estimated
08:51PM -6.8654 -59.8436 129° Southeast  Level Estimated
08:52PM -6.9323 -59.7592 129° Southeast  Level Estimated
08:53PM -6.9992 -59.6748 129° Southeast  Level Estimated
08:54PM -7.0662 -59.5903 129° Southeast  Level Estimated
08:55PM -7.1331 -59.5058 129° Southeast  Level Estimated
08:56PM -7.1999 -59.4213 129° Southeast  Level Estimated
08:57PM -7.2668 -59.3367 129° Southeast  Level Estimated
08:58PM -7.3337 -59.2522 129° Southeast  Level Estimated
08:59PM -7.4005 -59.1675 129° Southeast  Level Estimated
09:00PM -7.4673 -59.0829 129° Southeast  Level Estimated
09:01PM -7.5341 -58.9983 129° Southeast  Level Estimated
09:02PM -7.6009 -58.9136 129° Southeast  Level Estimated
09:03PM -7.6677 -58.8289 129° Southeast  Level Estimated
09:04PM -7.7344 -58.7442 128° Southeast  Level Estimated
09:05PM -7.8012 -58.6594 128° Southeast  Level Estimated
09:06PM -7.8679 -58.5746 128° Southeast  Level Estimated
09:07PM -7.9346 -58.4898 128° Southeast  Level Estimated
09:08PM -8.0013 -58.4050 128° Southeast  Level Estimated
09:09PM -8.0680 -58.3201 128° Southeast  Level Estimated
09:10PM -8.1346 -58.2352 128° Southeast  Level Estimated
09:11PM -8.2013 -58.1503 128° Southeast  Level Estimated
09:12PM -8.2679 -58.0654 128° Southeast  Level Estimated
09:13PM -8.3345 -57.9804 128° Southeast  Level Estimated
09:14PM -8.4011 -57.8954 128° Southeast  Level Estimated
09:15PM -8.4676 -57.8104 128° Southeast  Level Estimated
09:16PM -8.5342 -57.7253 128° Southeast  Level Estimated
09:17PM -8.6007 -57.6402 128° Southeast  Level Estimated
09:18PM -8.6672 -57.5551 128° Southeast  Level Estimated
09:19PM -8.7337 -57.4699 128° Southeast  Level Estimated
09:20PM -8.8002 -57.3848 128° Southeast  Level Estimated
09:21PM -8.8666 -57.2995 128° Southeast  Level Estimated
09:22PM -8.9331 -57.2143 128° Southeast  Level Estimated
09:23PM -8.9995 -57.1290 128° Southeast  Level Estimated
09:24PM -9.0659 -57.0437 128° Southeast  Level Estimated
09:25PM -9.1322 -56.9584 128° Southeast  Level Estimated
09:26PM -9.1986 -56.8730 128° Southeast  Level Estimated
09:27PM -9.2649 -56.7876 128° Southeast  Level Estimated
09:28PM -9.3312 -56.7022 128° Southeast  Level Estimated
09:29PM -9.3975 -56.6167 128° Southeast  Level Estimated
09:30PM -9.4638 -56.5312 128° Southeast  Level Estimated
09:31PM -9.5300 -56.4457 128° Southeast  Level Estimated
09:32PM -9.5963 -56.3601 128° Southeast  Level Estimated
09:33PM -9.6625 -56.2745 128° Southeast  Level Estimated
09:34PM -9.7287 -56.1889 128° Southeast  Level Estimated
09:35PM -9.7948 -56.1032 128° Southeast  Level Estimated
09:36PM -9.8610 -56.0175 128° Southeast  Level Estimated
09:37PM -9.9271 -55.9318 128° Southeast  Level Estimated
09:38PM -9.9932 -55.8460 128° Southeast  Level Estimated
09:39PM -10.0593 -55.7602 128° Southeast  Level Estimated
09:40PM -10.1253 -55.6743 128° Southeast  Level Estimated
09:41PM -10.1914 -55.5885 128° Southeast  Level Estimated
09:42PM -10.2574 -55.5025 128° Southeast  Level Estimated
09:43PM -10.3234 -55.4166 128° Southeast  Level Estimated
09:44PM -10.3893 -55.3306 128° Southeast  Level Estimated
09:45PM -10.4553 -55.2446 128° Southeast  Level Estimated
09:46PM -10.5212 -55.1585 128° Southeast  Level Estimated
09:47PM -10.5871 -55.0724 128° Southeast  Level Estimated
09:48PM -10.6530 -54.9863 128° Southeast  Level Estimated
09:49PM -10.7189 -54.9001 128° Southeast  Level Estimated
09:50PM -10.7847 -54.8139 128° Southeast  Level Estimated
09:51PM -10.8505 -54.7277 128° Southeast  Level Estimated
09:52PM -10.9163 -54.6414 128° Southeast  Level Estimated
09:53PM -10.9820 -54.5551 128° Southeast  Level Estimated
09:54PM -11.0478 -54.4687 128° Southeast  Level Estimated
09:55PM -11.1135 -54.3823 128° Southeast  Level Estimated
09:56PM -11.1791 -54.2959 128° Southeast  Level Estimated
09:57PM -11.2448 -54.2094 128° Southeast  Level Estimated
09:58PM -11.3104 -54.1229 128° Southeast  Level Estimated
09:59PM -11.3760 -54.0364 128° Southeast  Level Estimated
10:00PM -11.4416 -53.9498 128° Southeast  Level Estimated
10:01PM -11.5072 -53.8631 128° Southeast  Level Estimated
10:02PM -11.5727 -53.7765 128° Southeast  Level Estimated
10:03PM -11.6382 -53.6898 128° Southeast  Level Estimated
10:04PM -11.7037 -53.6030 128° Southeast  Level Estimated
10:05PM -11.7692 -53.5162 128° Southeast  Level Estimated
10:06PM -11.8346 -53.4294 128° Southeast  Level Estimated
10:06PM -14.8590 -49.4400 128° Southeast 471 542 35,200  Level FlightAware
10:07PM -11.9000 -53.3425 128° Southeast  Level Estimated
10:07PM -14.9210 -49.3550 127° Southeast 469 540 34,300  Level FlightAware
10:08PM -14.9950 -49.2510 126° Southeast 456 525 31,600 -2,280 Descending FlightAware
10:09PM -15.0560 -49.1670 127° Southeast 441 507 30,400 -1,800 Descending FlightAware
10:09PM -15.1040 -49.1000 127° Southeast 435 501 29,000 -2,280 Descending FlightAware
10:10PM -15.1440 -49.0440 127° Southeast 438 504 27,600 -2,520 Descending FlightAware
10:11PM -15.2210 -48.9370 127° Southeast 436 502 24,900 -2,640 Descending FlightAware
10:12PM -15.2740 -48.8620 126° Southeast 433 498 23,000 -2,640 Descending FlightAware
10:12PM -15.3250 -48.7890 126° Southeast 427 491 21,200 -2,580 Descending FlightAware
10:13PM -15.3730 -48.7210 126° Southeast 417 480 19,400 -2,640 Descending FlightAware
10:14PM -15.4240 -48.6500 127° Southeast 406 467 17,500 -2,640 Descending FlightAware
10:15PM -15.4680 -48.5880 126° Southeast 400 460 15,700 -1,860 Descending FlightAware
10:15PM -15.5220 -48.5110 126° Southeast 395 455 14,600 -2,580 Descending FlightAware
10:16PM -15.5690 -48.4450 126° Southeast 379 436 11,700 -3,000 Descending FlightAware
10:17PM -15.6150 -48.3800 126° Southeast 356 410 10,300 -1,500 Descending FlightAware
10:17PM -15.6390 -48.3460 126° Southeast 332 382 10,000 -480 Descending FlightAware
10:18PM -15.6520 -48.3280 127° Southeast 314 361 10,000 -180 Level FlightAware
10:18PM -15.6720 -48.2990 126° Southeast 288 331 9,900 -1,020 Descending FlightAware
10:18PM -15.6960 -48.2650 126° Southeast 288 331 9,100 -1,800 Descending FlightAware
10:19PM -15.7150 -48.2380 126° Southeast 290 334 8,300 -1,680 Descending FlightAware
10:19PM -15.7390 -48.2040 126° Southeast 287 330 7,600 -1,140 Descending FlightAware
10:20PM -15.7580 -48.1770 126° Southeast 275 316 7,300 -600 Descending FlightAware
10:20PM -15.7850 -48.1430 130° Southeast 245 282 7,000 -720 Descending FlightAware
10:21PM -15.8000 -48.1350 153° Southeast 241 277 6,700 -1,440 Descending FlightAware
10:21PM -15.8160 -48.1290 160° South 240 276 6,300 -1,560 Descending FlightAware
10:21PM -15.8370 -48.1220 162° South 237 273 5,800 -1,320 Descending FlightAware
10:22PM -15.8660 -48.1080 155° Southeast 228 262 5,200 -960 Descending FlightAware
10:22PM -15.8740 -48.0960 125° Southeast 203 234 5,100 -180 Descending FlightAware
10:22PM -15.8730 -48.0700 88° East 169 194 5,100  Level FlightAware
10:23PM -15.8710 -48.0500 84° East 160 184 5,100  Level FlightAware
10:23PM -15.8710 -48.0390 90° East 159 183 5,100 -300 Level FlightAware
10:24PM -15.8690 -48.0160 85° East 157 181 4,900 -600 Descending FlightAware
10:24PM -15.8680 -47.9950 87° East 147 169 4,500 -780 Descending FlightAware
10:25PM -15.8670 -47.9770 87° East 151 174 4,200 -660 Descending FlightAware
10:25PM -15.8660 -47.9580 87° East 156 180 3,900 -900 Descending FlightAware
10:26PM -15.8640 -47.9350 85° East 158 182 3,400 -360 Descending FlightAware
10:26PM -15.8630 -47.9130 87° East 120 138 -120 Descending FlightAware
10:27PM -15.8610 -47.8920 84° East 146 168 3,300 3,720 Climbing FlightAware
10:27PM -15.8620 -47.9010 263° West 24 28 -9,000 Descending FlightAware
10:28PM -15.8620 -47.8970 90° East 15 17  Level FlightAware
10:31PM -15.8626 -47.9127 268° West  Level Estimated
10:32PM -15.8626 -47.9127 128° Southeast  Level Estimated
10:33PM -15.8626 -47.9127 128° Southeast  Level Estimated
10:34PM -15.8626 -47.9127 128° Southeast  Level Estimated
10:35PM -15.8626 -47.9127 128° Southeast  Level Estimated
10:36PM -15.8626 -47.9127 128° Southeast  Level Estimated
10:37PM -15.8626 -47.9127 128° Southeast  Level Estimated
10:38PM -15.8626 -47.9127 128° Southeast  Level Estimated
10:39PM -15.8626 -47.9127 128° Southeast  Level Estimated
10:40PM -15.8626 -47.9127 128° Southeast  Level Estimated
10:41PM -15.8626 -47.9127 128° Southeast  Level Estimated
10:42PM -15.8626 -47.9127 128° Southeast  Level Estimated
10:43PM -15.8626 -47.9127 128° Southeast  Level Estimated
10:44PM -15.8626 -47.9127 128° Southeast  Level Estimated